sensor_id;sensor_type;location;lat;lon;timestamp;temperature;humidity
2577;DHT22;1298;51.252;6.802;2022-08-19T00:01:45;20.30;99.90
2577;DHT22;1298;51.252;6.802;2022-08-19T00:04:32;20.20;99.90
2577;DHT22;1298;51.252;6.802;2022-08-19T00:07:20;20.20;99.90
2577;DHT22;1298;51.252;6.802;2022-08-19T00:10:08;20.10;99.90
2577;DHT22;1298;51.252;6.802;2022-08-19T00:12:54;20.10;99.90
2577;DHT22;1298;51.252;6.802;2022-08-19T00:15:40;20.10;99.90
2577;DHT22;1298;51.252;6.802;2022-08-19T00:18:28;20.20;99.90
2577;DHT22;1298;51.252;6.802;2022-08-19T00:21:14;20.20;99.90
2577;DHT22;1298;51.252;6.802;2022-08-19T00:23:59;20.10;99.90
2577;DHT22;1298;51.252;6.802;2022-08-19T00:26:46;20.10;99.90
2577;DHT22;1298;51.252;6.802;2022-08-19T00:29:32;20.00;99.90
2577;DHT22;1298;51.252;6.802;2022-08-19T00:32:17;20.00;99.90
2577;DHT22;1298;51.252;6.802;2022-08-19T00:35:03;19.90;99.90
2577;DHT22;1298;51.252;6.802;2022-08-19T00:37:49;19.90;99.90
2577;DHT22;1298;51.252;6.802;2022-08-19T00:40:34;19.90;99.90
2577;DHT22;1298;51.252;6.802;2022-08-19T00:43:23;19.80;99.90
2577;DHT22;1298;51.252;6.802;2022-08-19T00:46:09;19.80;99.90
2577;DHT22;1298;51.252;6.802;2022-08-19T00:48:56;19.80;99.90
2577;DHT22;1298;51.252;6.802;2022-08-19T00:51:43;19.80;99.90
2577;DHT22;1298;51.252;6.802;2022-08-19T00:54:29;19.80;99.90
2577;DHT22;1298;51.252;6.802;2022-08-19T00:57:18;19.70;99.90
2577;DHT22;1298;51.252;6.802;2022-08-19T01:00:12;19.70;99.90
2577;DHT22;1298;51.252;6.802;2022-08-19T01:02:58;19.60;99.90
2577;DHT22;1298;51.252;6.802;2022-08-19T01:05:45;19.60;99.90
2577;DHT22;1298;51.252;6.802;2022-08-19T01:08:32;19.50;99.90
2577;DHT22;1298;51.252;6.802;2022-08-19T01:11:18;19.40;99.90
2577;DHT22;1298;51.252;6.802;2022-08-19T01:14:05;19.40;99.90
2577;DHT22;1298;51.252;6.802;2022-08-19T01:16:53;19.40;99.90
2577;DHT22;1298;51.252;6.802;2022-08-19T01:19:42;19.40;99.90
2577;DHT22;1298;51.252;6.802;2022-08-19T01:22:32;19.30;99.90
2577;DHT22;1298;51.252;6.802;2022-08-19T01:25:23;19.30;99.90
2577;DHT22;1298;51.252;6.802;2022-08-19T01:28:14;19.20;99.90
2577;DHT22;1298;51.252;6.802;2022-08-19T01:30:59;19.20;99.90
2577;DHT22;1298;51.252;6.802;2022-08-19T01:33:45;19.20;99.90
2577;DHT22;1298;51.252;6.802;2022-08-19T01:36:35;19.10;99.90
2577;DHT22;1298;51.252;6.802;2022-08-19T01:39:26;19.10;99.90
2577;DHT22;1298;51.252;6.802;2022-08-19T01:42:12;19.10;99.90
2577;DHT22;1298;51.252;6.802;2022-08-19T01:44:57;19.10;99.90
2577;DHT22;1298;51.252;6.802;2022-08-19T01:47:43;19.10;99.90
2577;DHT22;1298;51.252;6.802;2022-08-19T01:50:29;19.10;99.90
2577;DHT22;1298;51.252;6.802;2022-08-19T01:53:15;19.00;99.90
2577;DHT22;1298;51.252;6.802;2022-08-19T01:56:03;19.00;99.90
2577;DHT22;1298;51.252;6.802;2022-08-19T01:58:51;19.00;99.90
2577;DHT22;1298;51.252;6.802;2022-08-19T02:01:38;19.00;99.90
2577;DHT22;1298;51.252;6.802;2022-08-19T02:04:25;19.00;99.90
2577;DHT22;1298;51.252;6.802;2022-08-19T02:07:11;19.00;99.90
2577;DHT22;1298;51.252;6.802;2022-08-19T02:09:56;18.90;99.90
2577;DHT22;1298;51.252;6.802;2022-08-19T02:12:44;18.90;99.90
2577;DHT22;1298;51.252;6.802;2022-08-19T02:15:29;18.80;99.90
2577;DHT22;1298;51.252;6.802;2022-08-19T02:18:16;18.80;99.90
2577;DHT22;1298;51.252;6.802;2022-08-19T02:21:01;18.80;99.90
2577;DHT22;1298;51.252;6.802;2022-08-19T02:23:47;18.80;99.90
2577;DHT22;1298;51.252;6.802;2022-08-19T02:26:33;18.80;99.90
2577;DHT22;1298;51.252;6.802;2022-08-19T02:29:20;18.80;99.90
2577;DHT22;1298;51.252;6.802;2022-08-19T02:32:06;18.80;99.90
2577;DHT22;1298;51.252;6.802;2022-08-19T02:34:51;18.80;99.90
2577;DHT22;1298;51.252;6.802;2022-08-19T02:37:36;18.80;99.90
2577;DHT22;1298;51.252;6.802;2022-08-19T02:40:39;18.80;99.90
2577;DHT22;1298;51.252;6.802;2022-08-19T02:43:26;18.90;99.90
2577;DHT22;1298;51.252;6.802;2022-08-19T02:46:16;18.80;99.90
2577;DHT22;1298;51.252;6.802;2022-08-19T02:49:07;18.80;99.90
2577;DHT22;1298;51.252;6.802;2022-08-19T02:51:52;18.80;99.90
2577;DHT22;1298;51.252;6.802;2022-08-19T02:54:38;18.90;99.90
2577;DHT22;1298;51.252;6.802;2022-08-19T02:57:24;18.80;99.90
2577;DHT22;1298;51.252;6.802;2022-08-19T03:00:12;18.80;99.90
2577;DHT22;1298;51.252;6.802;2022-08-19T03:02:59;18.80;99.90
2577;DHT22;1298;51.252;6.802;2022-08-19T03:05:45;18.80;99.90
2577;DHT22;1298;51.252;6.802;2022-08-19T03:08:30;18.70;99.90
2577;DHT22;1298;51.252;6.802;2022-08-19T03:11:18;18.70;99.90
2577;DHT22;1298;51.252;6.802;2022-08-19T03:14:06;18.70;99.90
2577;DHT22;1298;51.252;6.802;2022-08-19T03:16:52;18.70;99.90
2577;DHT22;1298;51.252;6.802;2022-08-19T03:19:39;18.70;99.90
2577;DHT22;1298;51.252;6.802;2022-08-19T03:22:24;18.70;99.90
2577;DHT22;1298;51.252;6.802;2022-08-19T03:25:10;18.70;99.90
2577;DHT22;1298;51.252;6.802;2022-08-19T03:27:56;18.70;99.90
2577;DHT22;1298;51.252;6.802;2022-08-19T03:30:43;18.70;99.90
2577;DHT22;1298;51.252;6.802;2022-08-19T03:33:29;18.60;99.90
2577;DHT22;1298;51.252;6.802;2022-08-19T03:36:18;18.60;99.90
2577;DHT22;1298;51.252;6.802;2022-08-19T03:39:04;18.70;99.90
2577;DHT22;1298;51.252;6.802;2022-08-19T03:41:50;18.70;99.90
2577;DHT22;1298;51.252;6.802;2022-08-19T03:44:36;18.70;99.90
2577;DHT22;1298;51.252;6.802;2022-08-19T03:47:22;18.80;99.90
2577;DHT22;1298;51.252;6.802;2022-08-19T03:50:08;18.80;99.90
2577;DHT22;1298;51.252;6.802;2022-08-19T03:52:56;18.80;99.90
2577;DHT22;1298;51.252;6.802;2022-08-19T03:55:41;18.80;99.90
2577;DHT22;1298;51.252;6.802;2022-08-19T03:58:29;18.80;99.90
2577;DHT22;1298;51.252;6.802;2022-08-19T04:01:17;18.80;99.90
2577;DHT22;1298;51.252;6.802;2022-08-19T04:04:04;18.70;99.90
2577;DHT22;1298;51.252;6.802;2022-08-19T04:06:50;18.70;99.90
2577;DHT22;1298;51.252;6.802;2022-08-19T04:09:37;18.80;99.90
2577;DHT22;1298;51.252;6.802;2022-08-19T04:12:22;18.90;99.90
2577;DHT22;1298;51.252;6.802;2022-08-19T04:15:09;18.80;99.90
2577;DHT22;1298;51.252;6.802;2022-08-19T04:17:54;18.70;99.90
2577;DHT22;1298;51.252;6.802;2022-08-19T04:20:44;18.60;99.90
2577;DHT22;1298;51.252;6.802;2022-08-19T04:23:31;18.60;99.90
2577;DHT22;1298;51.252;6.802;2022-08-19T04:26:21;18.60;99.90
2577;DHT22;1298;51.252;6.802;2022-08-19T04:29:11;18.60;99.90
2577;DHT22;1298;51.252;6.802;2022-08-19T04:31:57;18.60;99.90
2577;DHT22;1298;51.252;6.802;2022-08-19T04:34:42;18.60;99.90
2577;DHT22;1298;51.252;6.802;2022-08-19T04:37:27;18.60;99.90
2577;DHT22;1298;51.252;6.802;2022-08-19T04:40:17;18.60;99.90
2577;DHT22;1298;51.252;6.802;2022-08-19T04:43:21;18.70;99.90
2577;DHT22;1298;51.252;6.802;2022-08-19T04:46:08;18.70;99.90
2577;DHT22;1298;51.252;6.802;2022-08-19T04:48:54;18.60;99.90
2577;DHT22;1298;51.252;6.802;2022-08-19T04:51:41;18.60;99.90
2577;DHT22;1298;51.252;6.802;2022-08-19T04:54:27;18.60;99.90
2577;DHT22;1298;51.252;6.802;2022-08-19T04:57:12;18.70;99.90
2577;DHT22;1298;51.252;6.802;2022-08-19T04:59:59;18.60;99.90
2577;DHT22;1298;51.252;6.802;2022-08-19T05:02:45;18.60;99.90
2577;DHT22;1298;51.252;6.802;2022-08-19T05:05:30;18.60;99.90
2577;DHT22;1298;51.252;6.802;2022-08-19T05:08:17;18.60;99.90
2577;DHT22;1298;51.252;6.802;2022-08-19T05:11:08;18.60;99.90
2577;DHT22;1298;51.252;6.802;2022-08-19T05:13:55;18.70;99.90
2577;DHT22;1298;51.252;6.802;2022-08-19T05:16:42;18.70;99.90
2577;DHT22;1298;51.252;6.802;2022-08-19T05:19:28;18.70;99.90
2577;DHT22;1298;51.252;6.802;2022-08-19T05:22:31;18.90;99.90
2577;DHT22;1298;51.252;6.802;2022-08-19T05:25:20;19.00;99.90
2577;DHT22;1298;51.252;6.802;2022-08-19T05:28:06;19.20;99.90
2577;DHT22;1298;51.252;6.802;2022-08-19T05:30:51;19.20;99.90
2577;DHT22;1298;51.252;6.802;2022-08-19T05:33:40;19.20;99.90
2577;DHT22;1298;51.252;6.802;2022-08-19T05:36:26;19.30;99.90
2577;DHT22;1298;51.252;6.802;2022-08-19T05:39:14;19.30;99.90
2577;DHT22;1298;51.252;6.802;2022-08-19T05:42:04;19.40;99.90
2577;DHT22;1298;51.252;6.802;2022-08-19T05:44:51;19.40;99.90
2577;DHT22;1298;51.252;6.802;2022-08-19T05:47:36;19.40;99.90
2577;DHT22;1298;51.252;6.802;2022-08-19T05:50:23;19.50;99.90
2577;DHT22;1298;51.252;6.802;2022-08-19T05:53:10;19.60;99.90
2577;DHT22;1298;51.252;6.802;2022-08-19T05:55:56;19.70;99.90
2577;DHT22;1298;51.252;6.802;2022-08-19T05:58:42;19.60;99.90
2577;DHT22;1298;51.252;6.802;2022-08-19T06:01:29;19.70;99.90
2577;DHT22;1298;51.252;6.802;2022-08-19T06:04:14;19.60;99.90
2577;DHT22;1298;51.252;6.802;2022-08-19T06:07:01;19.70;99.90
2577;DHT22;1298;51.252;6.802;2022-08-19T06:09:47;19.60;99.90
2577;DHT22;1298;51.252;6.802;2022-08-19T06:12:33;19.50;99.90
2577;DHT22;1298;51.252;6.802;2022-08-19T06:15:19;19.50;99.90
2577;DHT22;1298;51.252;6.802;2022-08-19T06:18:10;19.50;99.90
2577;DHT22;1298;51.252;6.802;2022-08-19T06:20:56;19.50;99.90
2577;DHT22;1298;51.252;6.802;2022-08-19T06:23:43;19.60;99.90
2577;DHT22;1298;51.252;6.802;2022-08-19T06:26:28;19.50;99.90
2577;DHT22;1298;51.252;6.802;2022-08-19T06:29:15;19.50;99.90
2577;DHT22;1298;51.252;6.802;2022-08-19T06:32:02;19.50;99.90
2577;DHT22;1298;51.252;6.802;2022-08-19T06:34:48;19.60;99.90
2577;DHT22;1298;51.252;6.802;2022-08-19T06:37:34;19.50;99.90
2577;DHT22;1298;51.252;6.802;2022-08-19T06:40:21;19.50;99.90
2577;DHT22;1298;51.252;6.802;2022-08-19T06:43:07;19.50;99.90
2577;DHT22;1298;51.252;6.802;2022-08-19T06:45:52;19.60;99.90
2577;DHT22;1298;51.252;6.802;2022-08-19T06:48:38;19.50;99.90
2577;DHT22;1298;51.252;6.802;2022-08-19T06:51:25;19.50;99.90
2577;DHT22;1298;51.252;6.802;2022-08-19T06:54:11;19.70;99.90
2577;DHT22;1298;51.252;6.802;2022-08-19T06:56:58;19.90;99.90
2577;DHT22;1298;51.252;6.802;2022-08-19T06:59:45;19.90;99.90
2577;DHT22;1298;51.252;6.802;2022-08-19T07:02:31;20.10;99.90
2577;DHT22;1298;51.252;6.802;2022-08-19T07:05:16;20.00;99.90
2577;DHT22;1298;51.252;6.802;2022-08-19T07:08:02;20.20;99.90
2577;DHT22;1298;51.252;6.802;2022-08-19T07:10:50;20.30;99.90
2577;DHT22;1298;51.252;6.802;2022-08-19T07:13:37;20.30;99.90
2577;DHT22;1298;51.252;6.802;2022-08-19T07:16:22;20.20;99.90
2577;DHT22;1298;51.252;6.802;2022-08-19T07:19:08;20.20;99.90
2577;DHT22;1298;51.252;6.802;2022-08-19T07:21:54;20.30;99.90
2577;DHT22;1298;51.252;6.802;2022-08-19T07:24:40;20.30;99.90
2577;DHT22;1298;51.252;6.802;2022-08-19T07:27:25;20.30;99.90
2577;DHT22;1298;51.252;6.802;2022-08-19T07:30:12;20.40;99.90
2577;DHT22;1298;51.252;6.802;2022-08-19T07:32:58;20.60;99.90
2577;DHT22;1298;51.252;6.802;2022-08-19T07:35:44;20.70;99.90
2577;DHT22;1298;51.252;6.802;2022-08-19T07:38:29;20.70;99.90
2577;DHT22;1298;51.252;6.802;2022-08-19T07:41:18;20.90;99.90
2577;DHT22;1298;51.252;6.802;2022-08-19T07:44:04;21.00;99.90
2577;DHT22;1298;51.252;6.802;2022-08-19T07:46:55;21.10;99.90
2577;DHT22;1298;51.252;6.802;2022-08-19T07:49:41;21.30;99.90
2577;DHT22;1298;51.252;6.802;2022-08-19T07:52:27;21.50;99.90
2577;DHT22;1298;51.252;6.802;2022-08-19T07:55:13;21.70;99.90
2577;DHT22;1298;51.252;6.802;2022-08-19T07:57:59;21.90;99.90
2577;DHT22;1298;51.252;6.802;2022-08-19T08:00:46;21.90;99.90
2577;DHT22;1298;51.252;6.802;2022-08-19T08:03:35;22.10;99.90
2577;DHT22;1298;51.252;6.802;2022-08-19T08:06:39;22.30;99.90
2577;DHT22;1298;51.252;6.802;2022-08-19T08:09:43;22.60;99.90
2577;DHT22;1298;51.252;6.802;2022-08-19T08:12:33;22.60;99.90
2577;DHT22;1298;51.252;6.802;2022-08-19T08:15:19;22.50;99.90
2577;DHT22;1298;51.252;6.802;2022-08-19T08:18:04;22.60;99.90
2577;DHT22;1298;51.252;6.802;2022-08-19T08:20:52;22.50;99.90
2577;DHT22;1298;51.252;6.802;2022-08-19T08:23:37;22.60;99.90
2577;DHT22;1298;51.252;6.802;2022-08-19T08:26:23;22.60;99.90
2577;DHT22;1298;51.252;6.802;2022-08-19T08:29:09;22.70;99.90
2577;DHT22;1298;51.252;6.802;2022-08-19T08:31:57;22.60;99.90
2577;DHT22;1298;51.252;6.802;2022-08-19T08:34:43;22.50;99.90
2577;DHT22;1298;51.252;6.802;2022-08-19T08:37:29;22.60;99.90
2577;DHT22;1298;51.252;6.802;2022-08-19T08:40:19;22.70;99.90
2577;DHT22;1298;51.252;6.802;2022-08-19T08:43:07;22.70;99.90
2577;DHT22;1298;51.252;6.802;2022-08-19T08:46:00;22.70;99.90
2577;DHT22;1298;51.252;6.802;2022-08-19T08:48:57;22.60;99.90
2577;DHT22;1298;51.252;6.802;2022-08-19T08:51:47;22.50;99.90
2577;DHT22;1298;51.252;6.802;2022-08-19T08:54:38;22.50;99.90
2577;DHT22;1298;51.252;6.802;2022-08-19T08:57:28;22.50;99.90
2577;DHT22;1298;51.252;6.802;2022-08-19T09:00:20;22.70;99.90
2577;DHT22;1298;51.252;6.802;2022-08-19T09:03:12;22.80;99.90
2577;DHT22;1298;51.252;6.802;2022-08-19T09:06:03;22.70;99.90
2577;DHT22;1298;51.252;6.802;2022-08-19T09:09:01;22.60;99.90
2577;DHT22;1298;51.252;6.802;2022-08-19T09:12:05;22.50;99.90
2577;DHT22;1298;51.252;6.802;2022-08-19T09:14:56;22.40;99.90
2577;DHT22;1298;51.252;6.802;2022-08-19T09:17:42;22.40;99.90
2577;DHT22;1298;51.252;6.802;2022-08-19T09:20:28;22.60;99.90
2577;DHT22;1298;51.252;6.802;2022-08-19T09:23:15;22.70;99.90
2577;DHT22;1298;51.252;6.802;2022-08-19T09:26:01;22.70;99.90
2577;DHT22;1298;51.252;6.802;2022-08-19T09:28:49;22.90;99.90
2577;DHT22;1298;51.252;6.802;2022-08-19T09:31:34;23.10;99.90
2577;DHT22;1298;51.252;6.802;2022-08-19T09:34:20;23.20;99.90
2577;DHT22;1298;51.252;6.802;2022-08-19T09:37:05;23.20;99.90
2577;DHT22;1298;51.252;6.802;2022-08-19T09:39:51;23.20;99.90
2577;DHT22;1298;51.252;6.802;2022-08-19T09:42:36;23.00;99.90
2577;DHT22;1298;51.252;6.802;2022-08-19T09:45:23;23.00;99.90
2577;DHT22;1298;51.252;6.802;2022-08-19T09:48:08;23.00;99.90
2577;DHT22;1298;51.252;6.802;2022-08-19T09:50:54;23.10;99.90
2577;DHT22;1298;51.252;6.802;2022-08-19T09:53:39;23.30;99.90
2577;DHT22;1298;51.252;6.802;2022-08-19T09:56:25;23.40;99.90
2577;DHT22;1298;51.252;6.802;2022-08-19T09:59:11;23.30;99.90
2577;DHT22;1298;51.252;6.802;2022-08-19T10:01:58;23.30;99.90
2577;DHT22;1298;51.252;6.802;2022-08-19T10:04:44;23.50;99.90
2577;DHT22;1298;51.252;6.802;2022-08-19T10:07:47;23.40;99.90
2577;DHT22;1298;51.252;6.802;2022-08-19T10:10:35;23.60;99.90
2577;DHT22;1298;51.252;6.802;2022-08-19T10:13:22;23.80;99.90
2577;DHT22;1298;51.252;6.802;2022-08-19T10:16:11;23.90;99.90
2577;DHT22;1298;51.252;6.802;2022-08-19T10:18:58;23.90;99.90
2577;DHT22;1298;51.252;6.802;2022-08-19T10:21:44;23.90;99.90
2577;DHT22;1298;51.252;6.802;2022-08-19T10:24:30;23.70;99.90
2577;DHT22;1298;51.252;6.802;2022-08-19T10:27:16;24.00;99.90
2577;DHT22;1298;51.252;6.802;2022-08-19T10:30:03;23.90;99.90
2577;DHT22;1298;51.252;6.802;2022-08-19T10:32:49;24.00;99.90
2577;DHT22;1298;51.252;6.802;2022-08-19T10:35:35;24.00;99.90
2577;DHT22;1298;51.252;6.802;2022-08-19T10:38:22;24.10;99.90
2577;DHT22;1298;51.252;6.802;2022-08-19T10:41:09;24.10;99.90
2577;DHT22;1298;51.252;6.802;2022-08-19T10:43:59;24.20;99.90
2577;DHT22;1298;51.252;6.802;2022-08-19T10:46:45;24.40;99.90
2577;DHT22;1298;51.252;6.802;2022-08-19T10:49:31;24.40;99.90
2577;DHT22;1298;51.252;6.802;2022-08-19T10:52:39;24.50;99.90
2577;DHT22;1298;51.252;6.802;2022-08-19T10:55:24;24.60;99.90
2577;DHT22;1298;51.252;6.802;2022-08-19T10:58:28;24.50;99.90
2577;DHT22;1298;51.252;6.802;2022-08-19T11:01:14;24.80;99.90
2577;DHT22;1298;51.252;6.802;2022-08-19T11:03:59;24.60;99.90
2577;DHT22;1298;51.252;6.802;2022-08-19T11:06:47;24.40;99.90
2577;DHT22;1298;51.252;6.802;2022-08-19T11:09:37;24.30;99.90
2577;DHT22;1298;51.252;6.802;2022-08-19T11:12:23;24.30;99.90
2577;DHT22;1298;51.252;6.802;2022-08-19T11:15:10;24.40;99.90
2577;DHT22;1298;51.252;6.802;2022-08-19T11:17:55;24.40;99.90
2577;DHT22;1298;51.252;6.802;2022-08-19T11:20:40;24.40;99.90
2577;DHT22;1298;51.252;6.802;2022-08-19T11:23:26;24.80;99.90
2577;DHT22;1298;51.252;6.802;2022-08-19T11:26:14;25.20;99.90
2577;DHT22;1298;51.252;6.802;2022-08-19T11:29:00;25.60;99.90
2577;DHT22;1298;51.252;6.802;2022-08-19T11:31:48;25.80;99.90
2577;DHT22;1298;51.252;6.802;2022-08-19T11:34:34;25.80;99.90
2577;DHT22;1298;51.252;6.802;2022-08-19T11:37:20;25.70;99.90
2577;DHT22;1298;51.252;6.802;2022-08-19T11:40:07;25.70;99.90
2577;DHT22;1298;51.252;6.802;2022-08-19T11:42:54;25.10;99.90
2577;DHT22;1298;51.252;6.802;2022-08-19T11:45:40;25.00;99.90
2577;DHT22;1298;51.252;6.802;2022-08-19T11:48:26;25.20;99.90
2577;DHT22;1298;51.252;6.802;2022-08-19T11:51:15;25.70;99.90
2577;DHT22;1298;51.252;6.802;2022-08-19T11:54:01;26.10;99.90
2577;DHT22;1298;51.252;6.802;2022-08-19T11:56:46;26.20;99.90
2577;DHT22;1298;51.252;6.802;2022-08-19T11:59:34;25.90;99.90
2577;DHT22;1298;51.252;6.802;2022-08-19T12:02:19;26.30;99.90
2577;DHT22;1298;51.252;6.802;2022-08-19T12:05:06;26.30;99.90
2577;DHT22;1298;51.252;6.802;2022-08-19T12:07:52;26.20;99.90
2577;DHT22;1298;51.252;6.802;2022-08-19T12:10:39;26.30;99.90
2577;DHT22;1298;51.252;6.802;2022-08-19T12:13:26;26.30;99.90
2577;DHT22;1298;51.252;6.802;2022-08-19T12:16:15;25.90;99.90
2577;DHT22;1298;51.252;6.802;2022-08-19T12:19:03;25.70;99.90
2577;DHT22;1298;51.252;6.802;2022-08-19T12:21:48;25.70;99.90
2577;DHT22;1298;51.252;6.802;2022-08-19T12:24:34;25.70;99.90
2577;DHT22;1298;51.252;6.802;2022-08-19T12:27:20;25.80;99.90
2577;DHT22;1298;51.252;6.802;2022-08-19T12:30:08;25.90;99.90
2577;DHT22;1298;51.252;6.802;2022-08-19T12:32:55;25.80;99.90
2577;DHT22;1298;51.252;6.802;2022-08-19T12:35:41;26.10;99.90
2577;DHT22;1298;51.252;6.802;2022-08-19T12:38:30;26.10;99.90
2577;DHT22;1298;51.252;6.802;2022-08-19T12:41:17;26.30;99.90
2577;DHT22;1298;51.252;6.802;2022-08-19T12:44:05;26.50;99.90
2577;DHT22;1298;51.252;6.802;2022-08-19T12:46:51;26.60;99.90
2577;DHT22;1298;51.252;6.802;2022-08-19T12:49:38;26.90;99.90
2577;DHT22;1298;51.252;6.802;2022-08-19T12:52:25;26.60;99.90
2577;DHT22;1298;51.252;6.802;2022-08-19T12:55:11;26.50;99.90
2577;DHT22;1298;51.252;6.802;2022-08-19T12:57:56;26.60;99.90
2577;DHT22;1298;51.252;6.802;2022-08-19T13:00:42;26.60;99.90
2577;DHT22;1298;51.252;6.802;2022-08-19T13:03:28;26.90;99.90
2577;DHT22;1298;51.252;6.802;2022-08-19T13:06:15;27.20;99.90
2577;DHT22;1298;51.252;6.802;2022-08-19T13:09:01;27.80;99.90
2577;DHT22;1298;51.252;6.802;2022-08-19T13:11:47;28.20;99.90
2577;DHT22;1298;51.252;6.802;2022-08-19T13:14:33;28.60;99.90
2577;DHT22;1298;51.252;6.802;2022-08-19T13:17:19;29.30;99.90
2577;DHT22;1298;51.252;6.802;2022-08-19T13:20:05;29.30;99.90
2577;DHT22;1298;51.252;6.802;2022-08-19T13:22:54;29.40;99.90
2577;DHT22;1298;51.252;6.802;2022-08-19T13:25:41;29.80;99.90
2577;DHT22;1298;51.252;6.802;2022-08-19T13:28:26;30.50;99.90
2577;DHT22;1298;51.252;6.802;2022-08-19T13:31:34;30.20;99.90
2577;DHT22;1298;51.252;6.802;2022-08-19T13:34:37;30.20;99.90
2577;DHT22;1298;51.252;6.802;2022-08-19T13:37:23;30.50;99.90
2577;DHT22;1298;51.252;6.802;2022-08-19T13:40:24;30.60;99.90
2577;DHT22;1298;51.252;6.802;2022-08-19T13:43:10;30.80;99.90
2577;DHT22;1298;51.252;6.802;2022-08-19T13:45:56;31.70;99.90
2577;DHT22;1298;51.252;6.802;2022-08-19T13:48:42;32.20;99.90
2577;DHT22;1298;51.252;6.802;2022-08-19T13:51:27;31.70;99.90
2577;DHT22;1298;51.252;6.802;2022-08-19T13:54:13;30.80;99.90
2577;DHT22;1298;51.252;6.802;2022-08-19T13:57:00;30.60;99.90
2577;DHT22;1298;51.252;6.802;2022-08-19T13:59:45;30.20;99.90
2577;DHT22;1298;51.252;6.802;2022-08-19T14:02:31;31.20;99.90
2577;DHT22;1298;51.252;6.802;2022-08-19T14:05:18;31.70;99.90
2577;DHT22;1298;51.252;6.802;2022-08-19T14:08:03;32.20;99.90
2577;DHT22;1298;51.252;6.802;2022-08-19T14:10:49;33.20;99.90
2577;DHT22;1298;51.252;6.802;2022-08-19T14:13:36;33.30;99.90
2577;DHT22;1298;51.252;6.802;2022-08-19T14:16:21;33.20;99.90
2577;DHT22;1298;51.252;6.802;2022-08-19T14:19:07;32.90;99.90
2577;DHT22;1298;51.252;6.802;2022-08-19T14:21:52;32.20;99.90
2577;DHT22;1298;51.252;6.802;2022-08-19T14:24:38;32.00;99.90
2577;DHT22;1298;51.252;6.802;2022-08-19T14:27:24;32.70;99.90
2577;DHT22;1298;51.252;6.802;2022-08-19T14:30:14;32.70;99.90
2577;DHT22;1298;51.252;6.802;2022-08-19T14:33:01;32.20;99.90
2577;DHT22;1298;51.252;6.802;2022-08-19T14:35:46;32.10;99.90
2577;DHT22;1298;51.252;6.802;2022-08-19T14:38:32;31.80;99.90
2577;DHT22;1298;51.252;6.802;2022-08-19T14:41:19;31.30;99.90
2577;DHT22;1298;51.252;6.802;2022-08-19T14:44:05;31.70;99.90
2577;DHT22;1298;51.252;6.802;2022-08-19T14:46:52;32.20;99.90
2577;DHT22;1298;51.252;6.802;2022-08-19T14:49:38;32.80;99.90
2577;DHT22;1298;51.252;6.802;2022-08-19T14:52:24;32.20;99.90
2577;DHT22;1298;51.252;6.802;2022-08-19T14:55:10;32.40;99.90
2577;DHT22;1298;51.252;6.802;2022-08-19T14:57:55;32.40;99.90
2577;DHT22;1298;51.252;6.802;2022-08-19T15:00:41;32.60;99.90
2577;DHT22;1298;51.252;6.802;2022-08-19T15:03:28;33.10;99.90
2577;DHT22;1298;51.252;6.802;2022-08-19T15:06:14;32.50;99.90
2577;DHT22;1298;51.252;6.802;2022-08-19T15:09:00;31.50;99.90
2577;DHT22;1298;51.252;6.802;2022-08-19T15:11:47;30.80;99.90
2577;DHT22;1298;51.252;6.802;2022-08-19T15:14:36;30.70;99.90
2577;DHT22;1298;51.252;6.802;2022-08-19T15:17:22;30.80;99.90
2577;DHT22;1298;51.252;6.802;2022-08-19T15:20:11;30.30;99.90
2577;DHT22;1298;51.252;6.802;2022-08-19T15:22:57;29.90;99.90
2577;DHT22;1298;51.252;6.802;2022-08-19T15:25:44;31.00;99.90
2577;DHT22;1298;51.252;6.802;2022-08-19T15:28:29;31.80;99.90
2577;DHT22;1298;51.252;6.802;2022-08-19T15:31:18;31.90;99.90
2577;DHT22;1298;51.252;6.802;2022-08-19T15:34:04;32.20;99.90
2577;DHT22;1298;51.252;6.802;2022-08-19T15:36:52;31.30;99.90
2577;DHT22;1298;51.252;6.802;2022-08-19T15:39:37;31.00;99.90
2577;DHT22;1298;51.252;6.802;2022-08-19T15:42:22;31.00;99.90
2577;DHT22;1298;51.252;6.802;2022-08-19T15:45:11;29.80;99.90
2577;DHT22;1298;51.252;6.802;2022-08-19T15:47:56;29.80;99.90
2577;DHT22;1298;51.252;6.802;2022-08-19T15:50:42;30.20;99.90
2577;DHT22;1298;51.252;6.802;2022-08-19T15:53:29;30.40;99.90
2577;DHT22;1298;51.252;6.802;2022-08-19T15:56:15;31.00;99.90
2577;DHT22;1298;51.252;6.802;2022-08-19T15:59:01;31.40;99.90
2577;DHT22;1298;51.252;6.802;2022-08-19T16:02:04;30.20;99.90
2577;DHT22;1298;51.252;6.802;2022-08-19T16:05:11;29.10;99.90
2577;DHT22;1298;51.252;6.802;2022-08-19T16:08:14;28.20;99.90
2577;DHT22;1298;51.252;6.802;2022-08-19T16:11:01;27.60;99.90
2577;DHT22;1298;51.252;6.802;2022-08-19T16:13:47;28.20;99.90
2577;DHT22;1298;51.252;6.802;2022-08-19T16:16:35;27.90;99.90
2577;DHT22;1298;51.252;6.802;2022-08-19T16:19:22;27.80;99.90
2577;DHT22;1298;51.252;6.802;2022-08-19T16:22:08;27.80;99.90
2577;DHT22;1298;51.252;6.802;2022-08-19T16:24:53;27.30;99.90
2577;DHT22;1298;51.252;6.802;2022-08-19T16:27:40;27.80;99.90
2577;DHT22;1298;51.252;6.802;2022-08-19T16:30:26;28.70;99.90
2577;DHT22;1298;51.252;6.802;2022-08-19T16:33:11;28.70;99.90
2577;DHT22;1298;51.252;6.802;2022-08-19T16:35:57;28.30;99.90
2577;DHT22;1298;51.252;6.802;2022-08-19T16:38:42;27.80;99.90
2577;DHT22;1298;51.252;6.802;2022-08-19T16:41:29;27.30;99.90
2577;DHT22;1298;51.252;6.802;2022-08-19T16:44:17;27.00;99.90
2577;DHT22;1298;51.252;6.802;2022-08-19T16:47:04;26.70;99.90
2577;DHT22;1298;51.252;6.802;2022-08-19T16:49:49;26.60;99.90
2577;DHT22;1298;51.252;6.802;2022-08-19T16:52:35;26.40;99.90
2577;DHT22;1298;51.252;6.802;2022-08-19T16:55:20;26.20;99.90
2577;DHT22;1298;51.252;6.802;2022-08-19T16:58:05;26.20;99.90
2577;DHT22;1298;51.252;6.802;2022-08-19T17:00:53;26.30;99.90
2577;DHT22;1298;51.252;6.802;2022-08-19T17:03:38;26.00;99.90
2577;DHT22;1298;51.252;6.802;2022-08-19T17:06:26;25.90;99.90
2577;DHT22;1298;51.252;6.802;2022-08-19T17:09:12;25.70;99.90
2577;DHT22;1298;51.252;6.802;2022-08-19T17:11:59;26.30;99.90
2577;DHT22;1298;51.252;6.802;2022-08-19T17:14:44;27.10;99.90
2577;DHT22;1298;51.252;6.802;2022-08-19T17:17:31;27.80;99.90
2577;DHT22;1298;51.252;6.802;2022-08-19T17:20:17;27.70;99.90
2577;DHT22;1298;51.252;6.802;2022-08-19T17:23:03;27.30;99.90
2577;DHT22;1298;51.252;6.802;2022-08-19T17:25:49;26.80;99.90
2577;DHT22;1298;51.252;6.802;2022-08-19T17:28:35;26.40;99.90
2577;DHT22;1298;51.252;6.802;2022-08-19T17:31:22;26.20;99.90
2577;DHT22;1298;51.252;6.802;2022-08-19T17:34:08;25.90;99.90
2577;DHT22;1298;51.252;6.802;2022-08-19T17:36:54;25.60;99.90
2577;DHT22;1298;51.252;6.802;2022-08-19T17:39:40;25.40;99.90
2577;DHT22;1298;51.252;6.802;2022-08-19T17:42:26;25.10;99.90
2577;DHT22;1298;51.252;6.802;2022-08-19T17:45:12;25.00;99.90
2577;DHT22;1298;51.252;6.802;2022-08-19T17:47:57;25.00;99.90
2577;DHT22;1298;51.252;6.802;2022-08-19T17:50:45;25.00;99.90
2577;DHT22;1298;51.252;6.802;2022-08-19T17:53:30;25.10;99.90
2577;DHT22;1298;51.252;6.802;2022-08-19T17:56:16;25.10;99.90
2577;DHT22;1298;51.252;6.802;2022-08-19T17:59:02;25.00;99.90
2577;DHT22;1298;51.252;6.802;2022-08-19T18:01:48;25.00;99.90
2577;DHT22;1298;51.252;6.802;2022-08-19T18:04:34;24.70;99.90
2577;DHT22;1298;51.252;6.802;2022-08-19T18:07:21;23.90;99.90
2577;DHT22;1298;51.252;6.802;2022-08-19T18:10:07;23.10;99.90
2577;DHT22;1298;51.252;6.802;2022-08-19T18:12:54;22.90;99.90